Yasuj, Iran
Current Conditions -  °F | °C
As of 1:00 PM on Friday 31 Oct 2014 (Local Time) from OISY Reporting Station
Moderate Rain Moderate Rain  
Wind Chill: 50°   Ceiling: 7000
Heat Index: 50°   Visibility: 2.5mi
Dew Point: 48°   Wind: 9mph
Humidity: 94%   Direction: 310°NW
Pressure: 30.18"   Gusts: NA
Location:  30.67°N, 51.58°E
Report Text: OISY 311000Z 31008KT 4000 RA FEW030CB SCT035 OVC070 10/09 Q1022
Loading
Personal Weather Stations






























Interactive Weather Map New forecast layout! Learn more

10-Day Weather Forecast

Advertisements
Track Severe Weather on mobile